Etusivu
METAR-TAF:

METAR-TAF

Lentoasemat :

Kunming Changshuin kansainvälinen lentoasema

Kunming, Kiina

Leveyspiiri: 25-01N, Pituuspiiri: 102-41E, korkeus merenpinnasta: 1892 m

Tämänhetkinen sää

Tämä raportti tehtiin 56 minuuttia sitten, kello 09.00 UTC
Tuuli 17 kn lännestä/lounaasta
Lämpötila 22°C
Kosteus 23%
Ilmanpaine 1016 hPa
Näkyvyys 10 km tai enemmän
Muutamia pilviä 2600 ft:n korkeudessa

METAR: ZPPP 220900Z 24009MPS 9999 FEW026 22/00 Q1016 NOSIG

Aika: 17:56 (09:56 UTC)

Sääennuste

Tämä raportti tehtiin 8 tuntia ja 41 minuuttia sitten, kello 01.15 UTC
Ennuste voimassa 22. päivästä klo 06 UTC - 23. päivään klo 06 UTC
Tuuli 16 kn lounaasta
Näkyvyys 10 km tai enemmän
Hajanaisia pilviä 2600 ft:n korkeudessa
Tulossa
22. päivästä klo 15 UTC - 22. päivään klo 16 UTC
Tuuli 8 kn koillisesta

TAF: ZPPP 220115Z 2206/2306 22008MPS 9999 SCT026 TX23/2208Z TN07/2223Z BECMG 2215/2216 04004MPS

Säähavainnot ja -ennusteet yli 4000 lentoasemalta (METAR- ja TAF-raportit).

Käytössä olevat sääasemat on merkitty karttaan keltaisilla ja punaisilla pisteillä.

Aseta hiiri pisteen päälle nähdäksesi sääaseman nimen.

Klikkaa sitten nähdäksesi säähavainnot ja -ennusteet.

Kartan vaihtaminen: klikkaa mustalla rastilla varustettuja vihreitä pisteitä, niin voit zoomata sisään; viivalla varustettua vihreää pistettä, niin voit zoomata ulos tai vihreitä nuolia, niin pääset viereisille kartoille.


METAR-TAF: